Terminal Aerodrome Forecast
Issued by NWS

Home | Current Version | Previous Version | Text Only | Print | Product List | Glossary On
Versions: 1 2 3 4 5 6 7 8 9 10 11 12 13 14 15
000
FTUS46 KSTO 230500
TAFSMF
TAF
KSMF 230520Z 2306/2406 27008KT P6SM SCT200
     FM231400 30008KT P6SM SCT200
     FM240200 20008KT P6SM BKN150=

USA.gov is the U.S. government's official web portal to all federal, state and local government web resources and services.